Elwood, IN

10:37 PM EDT on September 02, 2015 (GMT -0400)
Pipe Creek Township Alexandria/Frankton | | Change Station
CLOSE
Current Station
Personal Weather Station
Location: Alexandria, IN
Elevation: 860 ft
Nearby Weather Stations

Elev 860 ft 40.25 °N, 85.75 °W | Updated 9 minutes ago

Clear
Clear
74.1 °F
Feels Like 74 °F
N
0.0
Wind Variable Wind from SE

Today
High -- | Low -- °F
--% Chance of Precip.
Yesterday
High -- | Low -- °F
Precip. -- in
7:11 AM 8:13 PM
Waning Gibbous, 75% visible
Pressure 30.04 in
Visibility -9999.0 miles
Clouds Clear
Heat Index 74 °F
Dew Point 69 °F
Humidity 83%
Rainfall 0.00 in
Snow Depth Not available.
UV 0 out of 12
Pollen 10.70 out of 12
Air Quality Not available.
Flu Activity Not available.
METAR KMZZ 030215Z AUTO 20003KT CLR 23/17 A3004 RMK AO2 T02250165 PWINO
Pressure 30.04 in
Visibility -9999.0 miles
Clouds Clear
Heat Index 74 °F
Dew Point 69 °F
Humidity 83%
Rainfall 0.00 in
Snow Depth Not available.
UV 0 out of 12
Pollen 10.70 out of 12
Air Quality Not available.
Flu Activity Not available.
METAR KMZZ 030215Z AUTO 20003KT CLR 23/17 A3004 RMK AO2 T02250165 PWINO

10-Day Weather Forecast

×

Almanac

Astronomy

Sep. 02, 2015 Rise Set
Actual Time
Civil Twilight
Nautical Twilight
Astronomical Twilight
Moon
Length of Visible Light
Length of Day
Tomorrow will be .
, % of the Moon is Illuminated

Today's Extremes

State Highs State Lows

Community

WunderPhotos

Upload Photos

1,851,879 photos uploaded!

WunderBlogs® & News

Nearby

Air Quality

  Air Quality AQ Index Pollutant
Not available.

Snow Depth

Station Depth Elevation

Earthquake Activity

City Distance Mag. Time & Date
Minimum magnitude displayed is 2.5.

Coastal Water Temperatures

Place Temperature

Stations

Nearby Weather Stations

Station Location Temp. Windchill Dew Point Humidity Wind Precip. Elev Updated Type